VCCC/RML METAR and TAF weather

Enter ICAO airport designator
Station Type Date Time Source
VCCC METAR 2018/02/06 07:00 UTC NOAA

VCCC 060700Z 27004KT 9999 FEW018 31/23 Q1011 A2988


Station Type Date Time Source
VCCC Decoded METAR 2018/02/06 07:00 UTC NOAA

Ratmalana, Sri Lanka (VCCC) 06-49N 079-53E 5M
Feb 06, 2018 - 02:00 AM EST / 2018.02.06 0700 UTC
Wind: from the W (270 degrees) at 5 MPH (4 KT):0
Visibility: greater than 7 mile(s):0
Sky conditions: mostly clear
Temperature: 87 F (31 C)
Heat index: 93.9 F (34.4 C):1
Dew Point: 73 F (23 C)
Relative Humidity: 62%
Pressure (altimeter): 29.88 in. Hg (1011 hPa)
ob: VCCC 060700Z 27004KT 9999 FEW018 31/23 Q1011 A2988
cycle: 7

Station Type Date Time Source
VCCC TAF UTC NOAA

Error!


Example: see airport list